createdAt,value
2023-03-22T00:01:50.172Z,7.07
2023-03-22T00:04:17.352Z,7.06
2023-03-22T00:06:44.519Z,7.00
2023-03-22T00:09:11.692Z,6.93
2023-03-22T00:11:38.854Z,6.96
2023-03-22T00:14:06.449Z,6.91
2023-03-22T00:16:33.737Z,6.91
2023-03-22T00:19:01.402Z,6.81
2023-03-22T00:21:28.514Z,6.84
2023-03-22T00:23:55.756Z,6.85
2023-03-22T00:26:22.969Z,6.90
2023-03-22T00:28:50.247Z,6.96
2023-03-22T00:31:17.644Z,6.88
2023-03-22T00:33:44.797Z,6.71
2023-03-22T00:36:12.537Z,6.60
2023-03-22T00:38:44.395Z,6.48
2023-03-22T00:41:14.298Z,6.59
2023-03-22T00:43:41.949Z,6.52
2023-03-22T00:46:10.486Z,6.52
2023-03-22T00:48:38.188Z,6.38
2023-03-22T00:51:06.266Z,6.51
2023-03-22T00:53:33.934Z,6.54
2023-03-22T00:56:01.283Z,6.55
2023-03-22T00:58:35.175Z,6.47
2023-03-22T01:01:02.675Z,6.51
2023-03-22T01:03:29.920Z,6.47
2023-03-22T01:05:57.227Z,6.46
2023-03-22T01:08:25.070Z,6.48
2023-03-22T01:10:52.666Z,6.38
2023-03-22T01:13:19.915Z,6.42
2023-03-22T01:15:51.075Z,6.40
2023-03-22T01:18:19.032Z,6.20
2023-03-22T01:20:46.169Z,6.39
2023-03-22T01:23:13.564Z,6.39
2023-03-22T01:25:41.122Z,6.37
2023-03-22T01:28:09.342Z,6.35
2023-03-22T01:30:37.313Z,6.41
2023-03-22T01:33:05.998Z,6.37
2023-03-22T01:35:35.693Z,6.38
2023-03-22T01:38:03.819Z,6.41
2023-03-22T01:40:33.131Z,6.27
2023-03-22T01:43:02.132Z,6.38
2023-03-22T01:45:53.680Z,6.43
2023-03-22T01:48:37.670Z,6.36
2023-03-22T01:51:08.036Z,6.35
2023-03-22T01:53:49.231Z,6.38
2023-03-22T01:56:19.802Z,6.35
2023-03-22T01:58:49.495Z,6.26
2023-03-22T02:01:22.041Z,6.32
2023-03-22T02:03:59.434Z,6.39
2023-03-22T02:06:30.168Z,6.36
2023-03-22T02:09:08.484Z,6.39
2023-03-22T02:11:41.993Z,6.37
2023-03-22T02:14:37.502Z,6.29
2023-03-22T02:20:58.260Z,6.31
2023-03-22T02:24:15.847Z,6.30
2023-03-22T02:27:06.760Z,6.31
2023-03-22T02:30:14.127Z,6.27
2023-03-22T02:33:05.372Z,6.23
2023-03-22T02:35:46.098Z,6.13
2023-03-22T02:38:24.132Z,6.19
2023-03-22T02:41:23.257Z,6.17
2023-03-22T02:44:04.904Z,6.07
2023-03-22T02:50:57.237Z,6.15
2023-03-22T02:57:41.647Z,6.08
2023-03-22T03:00:28.793Z,6.12
2023-03-22T03:03:59.726Z,6.19
2023-03-22T03:06:32.273Z,6.17
2023-03-22T03:09:05.352Z,6.14
2023-03-22T03:11:32.965Z,6.08
2023-03-22T03:14:01.073Z,6.09
2023-03-22T03:16:31.110Z,6.13
2023-03-22T03:19:01.496Z,6.11
2023-03-22T03:25:54.950Z,5.95
2023-03-22T03:28:39.475Z,5.98
2023-03-22T03:31:17.059Z,6.11
2023-03-22T03:34:00.470Z,6.08
2023-03-22T03:36:30.028Z,6.05
2023-03-22T03:39:14.769Z,6.01
2023-03-22T03:41:46.904Z,6.05
2023-03-22T03:44:15.691Z,5.98
2023-03-22T03:46:47.034Z,5.98
2023-03-22T03:49:16.960Z,5.98
2023-03-22T03:51:52.625Z,5.96
2023-03-22T03:54:20.522Z,5.93
2023-03-22T03:56:51.163Z,5.82
2023-03-22T03:59:21.184Z,5.98
2023-03-22T04:06:20.437Z,5.99
2023-03-22T04:13:06.458Z,5.87
2023-03-22T04:20:57.549Z,5.94
2023-03-22T04:23:26.768Z,5.83
2023-03-22T04:25:54.856Z,5.92
2023-03-22T04:28:33.907Z,5.90
2023-03-22T04:31:03.558Z,5.88
2023-03-22T04:34:05.964Z,5.86
2023-03-22T04:36:49.944Z,5.74
2023-03-22T04:39:26.640Z,5.90
2023-03-22T04:42:20.291Z,5.90
2023-03-22T04:44:49.787Z,5.83
2023-03-22T04:47:18.472Z,5.85
2023-03-22T04:49:45.885Z,5.74
2023-03-22T04:52:15.788Z,5.85
2023-03-22T04:54:50.122Z,5.83
2023-03-22T04:57:19.553Z,5.79
2023-03-22T04:59:51.435Z,5.79
2023-03-22T05:02:30.874Z,5.89
2023-03-22T05:05:02.619Z,5.82
2023-03-22T05:07:36.119Z,5.72
2023-03-22T05:10:18.687Z,5.79
2023-03-22T05:12:48.923Z,5.95
2023-03-22T05:15:28.388Z,5.77
2023-03-22T05:17:55.997Z,5.55
2023-03-22T05:20:25.417Z,5.47
2023-03-22T05:23:21.578Z,5.57
2023-03-22T05:25:54.460Z,5.59
2023-03-22T05:28:22.821Z,5.66
2023-03-22T05:31:18.099Z,5.69
2023-03-22T05:33:58.298Z,5.70
2023-03-22T05:36:29.953Z,5.74
2023-03-22T05:39:10.129Z,5.69
2023-03-22T05:41:37.580Z,5.59
2023-03-22T05:44:05.617Z,5.72
2023-03-22T05:46:37.405Z,5.64
2023-03-22T05:49:27.354Z,5.57
2023-03-22T05:51:55.559Z,5.68
2023-03-22T05:54:27.910Z,5.65
2023-03-22T05:56:55.876Z,5.65
2023-03-22T05:59:25.127Z,5.62
2023-03-22T06:01:52.701Z,5.68
2023-03-22T06:04:23.353Z,5.64
2023-03-22T06:07:00.719Z,5.72
2023-03-22T06:09:41.789Z,5.73
2023-03-22T06:12:14.946Z,5.72
2023-03-22T06:14:44.703Z,5.66
2023-03-22T06:17:38.910Z,5.67
2023-03-22T06:20:11.040Z,5.62
2023-03-22T06:22:41.238Z,5.64
2023-03-22T06:25:09.159Z,5.61
2023-03-22T06:27:41.093Z,5.79
2023-03-22T06:30:09.303Z,5.73
2023-03-22T06:32:50.703Z,5.74
2023-03-22T06:35:18.313Z,5.78
2023-03-22T06:37:46.782Z,5.84
2023-03-22T06:40:14.047Z,5.94
2023-03-22T06:42:41.516Z,6.07
2023-03-22T06:45:16.664Z,6.07
2023-03-22T06:47:45.651Z,6.06
2023-03-22T06:50:28.897Z,6.03
2023-03-22T06:53:06.620Z,6.15
2023-03-22T06:55:35.254Z,6.25
2023-03-22T06:58:12.093Z,6.34
2023-03-22T07:00:39.887Z,6.39
2023-03-22T07:03:08.591Z,6.39
2023-03-22T07:05:42.553Z,6.43
2023-03-22T07:08:10.848Z,6.53
2023-03-22T07:10:44.045Z,6.64
2023-03-22T07:13:11.284Z,6.64
2023-03-22T07:15:38.931Z,6.73
2023-03-22T07:18:14.174Z,6.76
2023-03-22T07:20:42.724Z,6.81
2023-03-22T07:23:11.097Z,6.80
2023-03-22T07:25:47.737Z,6.89
2023-03-22T07:28:33.824Z,6.87
2023-03-22T07:31:11.839Z,7.02
2023-03-22T07:33:56.288Z,7.08
2023-03-22T07:36:26.270Z,7.01
2023-03-22T07:38:54.933Z,7.20
2023-03-22T07:41:30.428Z,7.23
2023-03-22T07:44:23.932Z,7.26
2023-03-22T07:47:11.447Z,7.35
2023-03-22T07:49:56.999Z,7.37
2023-03-22T07:52:31.170Z,7.45
2023-03-22T07:54:58.836Z,7.53
2023-03-22T07:58:17.038Z,7.59
2023-03-22T08:00:44.713Z,7.63
2023-03-22T08:03:50.449Z,7.57
2023-03-22T08:06:42.937Z,7.65
2023-03-22T08:09:11.822Z,7.82
2023-03-22T08:11:39.125Z,7.90
2023-03-22T08:14:07.134Z,7.99
2023-03-22T08:16:38.700Z,8.06
2023-03-22T08:19:06.411Z,8.13
2023-03-22T08:21:37.394Z,8.28
2023-03-22T08:24:07.600Z,8.36
2023-03-22T08:26:51.215Z,8.61
2023-03-22T08:29:28.568Z,8.64
2023-03-22T08:31:56.710Z,8.92
2023-03-22T08:34:23.980Z,9.03
2023-03-22T08:36:52.192Z,8.94
2023-03-22T08:39:19.249Z,9.10
2023-03-22T08:42:05.133Z,9.35
2023-03-22T08:44:32.762Z,9.45
2023-03-22T08:47:03.484Z,9.54
2023-03-22T08:49:31.706Z,9.52
2023-03-22T08:52:07.626Z,9.73
2023-03-22T08:54:55.743Z,9.77
2023-03-22T08:57:50.635Z,9.95
2023-03-22T09:00:20.725Z,9.93
2023-03-22T09:02:59.501Z,10.22
2023-03-22T09:05:27.277Z,10.24
2023-03-22T09:07:54.655Z,10.19
2023-03-22T09:10:29.402Z,10.44
2023-03-22T09:12:56.606Z,10.66
2023-03-22T09:15:24.067Z,10.73
2023-03-22T09:18:06.285Z,10.66
2023-03-22T09:20:34.814Z,10.77
2023-03-22T09:23:02.858Z,10.92
2023-03-22T09:25:30.693Z,11.07
2023-03-22T09:27:57.879Z,11.20
2023-03-22T09:30:26.552Z,11.30
2023-03-22T09:32:54.330Z,11.35
2023-03-22T09:35:22.383Z,11.52
2023-03-22T09:38:01.254Z,11.82
2023-03-22T09:40:33.296Z,11.94
2023-03-22T09:43:06.139Z,12.14
2023-03-22T09:45:43.115Z,12.45
2023-03-22T09:48:24.722Z,12.66
2023-03-22T09:50:53.467Z,12.85
2023-03-22T09:53:23.658Z,13.01
2023-03-22T09:56:17.795Z,13.19
2023-03-22T09:58:44.920Z,13.24
2023-03-22T10:01:37.836Z,13.33
2023-03-22T10:04:08.365Z,13.31
2023-03-22T10:06:35.721Z,13.59
2023-03-22T10:09:28.158Z,13.72
2023-03-22T10:12:05.382Z,13.69
2023-03-22T10:14:36.060Z,13.88
2023-03-22T10:17:16.855Z,14.13
2023-03-22T10:20:05.870Z,14.19
2023-03-22T10:22:36.761Z,14.43
2023-03-22T10:25:08.179Z,14.44
2023-03-22T10:27:37.757Z,14.42
2023-03-22T10:30:08.276Z,14.43
2023-03-22T10:32:57.162Z,14.48
2023-03-22T10:35:25.609Z,14.56
2023-03-22T10:37:54.037Z,14.60
2023-03-22T10:40:27.404Z,14.65
2023-03-22T10:43:03.901Z,14.64
2023-03-22T10:45:35.256Z,14.75
2023-03-22T10:48:11.353Z,14.83
2023-03-22T10:50:42.426Z,14.97
2023-03-22T10:53:27.976Z,15.00
2023-03-22T10:55:55.490Z,14.96
2023-03-22T10:58:28.775Z,14.92
2023-03-22T11:01:05.285Z,15.02
2023-03-22T11:03:35.743Z,15.11
2023-03-22T11:06:18.433Z,15.21
2023-03-22T11:08:50.259Z,15.28
2023-03-22T11:11:27.100Z,15.28
2023-03-22T11:14:08.968Z,15.35
2023-03-22T11:16:53.286Z,15.23
2023-03-22T11:19:29.638Z,15.60
2023-03-22T11:21:58.508Z,15.59
2023-03-22T11:24:32.466Z,15.75
2023-03-22T11:27:07.216Z,15.89
2023-03-22T11:29:43.739Z,15.98
2023-03-22T11:32:38.898Z,15.97
2023-03-22T11:35:14.730Z,15.91
2023-03-22T11:37:48.187Z,16.00
2023-03-22T11:40:22.410Z,16.09
2023-03-22T11:42:54.503Z,16.05
2023-03-22T11:45:49.913Z,16.04
2023-03-22T11:48:24.224Z,16.10
2023-03-22T11:50:55.832Z,16.10
2023-03-22T11:53:27.163Z,16.06
2023-03-22T11:55:57.945Z,15.99
2023-03-22T11:58:43.307Z,15.99
2023-03-22T12:01:22.208Z,16.08
2023-03-22T12:03:55.158Z,16.11
2023-03-22T12:06:30.223Z,16.30
2023-03-22T12:09:38.597Z,16.50
2023-03-22T12:12:13.345Z,16.46
2023-03-22T12:15:07.341Z,16.57
2023-03-22T12:17:53.240Z,16.67
2023-03-22T12:20:57.482Z,16.69
2023-03-22T12:23:28.553Z,16.73
2023-03-22T12:25:55.699Z,16.82
2023-03-22T12:28:30.341Z,16.88
2023-03-22T12:30:59.270Z,16.96
2023-03-22T12:33:45.710Z,16.93
2023-03-22T12:36:19.768Z,16.88
2023-03-22T12:38:50.221Z,16.95
2023-03-22T12:41:34.756Z,16.85
2023-03-22T12:44:27.116Z,16.77
2023-03-22T12:47:06.704Z,16.90
2023-03-22T12:50:03.173Z,16.86
2023-03-22T12:52:45.704Z,16.79
2023-03-22T12:55:27.662Z,16.89
2023-03-22T12:57:55.888Z,16.84
2023-03-22T13:00:49.634Z,16.88
2023-03-22T13:03:17.855Z,16.85
2023-03-22T13:05:48.378Z,16.86
2023-03-22T13:08:24.687Z,16.92
2023-03-22T13:10:59.812Z,16.97
2023-03-22T13:13:27.980Z,17.02
2023-03-22T13:16:11.221Z,16.99
2023-03-22T13:18:38.549Z,16.97
2023-03-22T13:21:15.508Z,16.95
2023-03-22T13:24:06.168Z,16.93
2023-03-22T13:26:51.769Z,16.84
2023-03-22T13:29:25.766Z,16.85
2023-03-22T13:32:03.781Z,16.90
2023-03-22T13:34:44.701Z,16.81
2023-03-22T13:37:42.212Z,16.76
2023-03-22T13:40:35.094Z,16.77
2023-03-22T13:43:26.105Z,16.67
2023-03-22T13:46:18.146Z,16.59
2023-03-22T13:48:48.794Z,16.58
2023-03-22T13:51:30.547Z,16.50
2023-03-22T13:54:13.614Z,16.38
2023-03-22T13:57:01.656Z,16.30
2023-03-22T14:00:11.168Z,16.44
2023-03-22T14:02:43.068Z,16.36
2023-03-22T14:05:16.848Z,16.32
2023-03-22T14:07:49.539Z,16.20
2023-03-22T14:10:19.085Z,16.19
2023-03-22T14:12:54.926Z,16.20
2023-03-22T14:15:26.849Z,16.09
2023-03-22T14:18:06.341Z,16.10
2023-03-22T14:20:40.008Z,16.01
